Latest Weather Observations for Cummins Airport

IDS60801

Issued at 7:05 pm CDT Thursday 23 October 2014 (issued every 30 minutes, with the page automatically refreshed every 10 minutes)

About weather observations | Map of weather stations | Latest weather observations for SA | Other Formats
Station Details ID: 018217 Name: CUMMINS AERO Lat: -34.25 Lon: 135.71 Height: 60.11 m
Data from the previous 72 hours. | See also: Recent months at Cummins Airport
Date/Time
CDT
Temp
°C
App
Temp
°C
Dew
Point
Rel
Hum
%
Delta-T
°C
Wind Press
QNH
hPa
Press
MSL
hPa
Rain
since 9 am
mm
Dir
 
Spd
km/h
Gust
km/h
Spd
kts
Gust
kts
23/07:00pm 21.7 19.7 11.4 52 5.7 SSE 13 17 7 9 1015.0 1014.9 0.0
23/06:30pm 22.9 20.8 11.3 48 6.5 S 13 20 7 11 1015.1 1015.0 0.0
23/06:00pm 24.0 21.7 11.7 46 7.0 S 15 20 8 11 1014.9 1014.8 0.0
23/05:30pm 25.1 21.9 11.3 42 7.8 S 19 26 10 14 1014.7 1014.6 0.0
23/05:00pm 26.8 24.3 10.9 37 9.0 SSE 15 20 8 11 1014.3 1014.2 0.0
23/04:30pm 25.8 22.4 10.4 38 8.6 SE 19 26 10 14 1014.4 1014.3 0.0
23/04:00pm 26.0 23.1 11.0 39 8.5 SSW 17 26 9 14 1014.5 1014.4 0.0
23/03:30pm 26.8 25.3 9.2 33 9.7 S 7 15 4 8 1014.6 1014.5 0.0
23/03:00pm 25.9 24.3 8.8 34 9.3 SSW 7 11 4 6 1015.1 1015.0 0.0
23/02:30pm 26.0 24.2 9.4 35 9.1 SSE 9 19 5 10 1015.2 1015.1 0.0
23/02:00pm 24.6 23.7 10.5 41 7.8 E 6 13 3 7 1015.6 1015.5 0.0
23/01:30pm 23.3 21.4 10.4 44 7.1 E 11 19 6 10 1016.1 1016.0 0.0
23/01:00pm 22.8 21.0 10.9 47 6.6 ESE 11 17 6 9 1016.5 1016.4 0.0
23/12:30pm 22.1 20.4 11.2 50 6.1 SE 11 20 6 11 1017.2 1017.1 0.0
23/12:00pm 20.5 18.4 11.2 55 5.1 E 13 24 7 13 1017.5 1017.4 0.0
23/11:30am 20.3 16.9 11.2 56 5.0 ESE 20 22 11 12 1017.8 1017.7 0.0
23/11:00am 18.5 16.4 11.1 62 4.0 ESE 13 22 7 12 1018.3 1018.2 0.0
23/10:30am 18.7 16.3 11.5 63 3.9 E 15 22 8 12 1018.7 1018.6 0.0
23/10:00am 17.3 15.0 11.6 69 3.1 ESE 15 22 8 12 1018.6 1018.5 0.0
23/09:30am 16.6 13.5 11.5 72 2.8 ESE 19 26 10 14 1018.8 1018.7 0.0
23/09:00am 15.6 12.8 11.4 76 2.3 ESE 17 20 9 11 1018.8 1018.7 0.0
23/08:30am 15.2 13.6 11.4 78 2.0 E 11 17 6 9 1019.0 1018.9 0.0
23/08:00am 14.7 12.3 11.3 80 1.8 ESE 15 20 8 11 1018.8 1018.7 0.0
23/07:30am 14.5 11.7 11.5 82 1.6 SE 17 24 9 13 1018.9 1018.8 0.0
23/07:00am 14.2 11.7 11.2 82 1.6 ESE 15 22 8 12 1019.1 1019.0 0.0
23/06:30am 14.2 12.2 11.4 83 1.5 ESE 13 20 7 11 1018.9 1018.8 0.0
23/06:00am 14.2 11.8 11.4 83 1.5 ESE 15 19 8 10 1018.9 1018.8 0.0
23/05:30am 14.0 11.5 11.2 83 1.5 SE 15 20 8 11 1018.9 1018.8 0.0
23/05:00am 14.3 11.2 11.5 83 1.5 SE 19 26 10 14 1018.4 1018.3 0.0
23/04:30am 14.5 11.7 11.5 82 1.6 ESE 17 24 9 13 1018.6 1018.5 0.0
23/04:00am 14.5 11.7 11.3 81 1.7 SE 17 24 9 13 1019.1 1019.0 0.0
23/03:30am 14.5 11.4 11.5 82 1.6 SE 19 24 10 13 1019.5 1019.4 0.0
23/03:00am 14.7 11.6 11.7 82 1.6 SSE 19 26 10 14 1019.8 1019.7 0.0
23/02:30am 14.7 11.4 11.5 81 1.7 SSE 20 26 11 14 1019.8 1019.7 0.0
23/02:00am 14.9 11.9 11.9 82 1.6 SE 19 24 10 13 1020.0 1019.9 0.0
23/01:30am 14.9 11.9 11.9 82 1.6 SSE 19 26 10 14 1020.3 1020.2 0.0
23/01:00am 14.7 11.1 11.8 83 1.6 SE 22 28 12 15 1020.7 1020.7 0.0
23/12:30am 14.9 11.9 12.0 83 1.6 SE 19 28 10 15 1021.0 1021.0 0.0
23/12:00am 14.7 11.8 12.2 85 1.4 SSE 19 28 10 15 1021.2 1021.2 0.0
 
Date/Time
CDT
Temp
°C
App
Temp
°C
Dew
Point
Rel
Hum
%
Delta-T
°C
Wind Press
QNH
hPa
Press
MSL
hPa
Rain
since 9 am
mm
Dir
 
Spd
km/h
Gust
km/h
Spd
kts
Gust
kts
22/11:30pm 14.5 11.3 12.0 85 1.3 S 20 30 11 16 1021.3 1021.3 0.0
22/11:00pm 14.5 11.5 12.0 85 1.4 SSE 19 26 10 14 1021.2 1021.2 0.0
22/10:30pm 14.4 11.4 11.9 85 1.3 SSE 19 28 10 15 1021.4 1021.4 0.0
22/10:00pm 14.3 11.1 11.8 85 1.3 SSE 20 28 11 15 1021.2 1021.2 0.0
22/09:30pm 14.4 11.2 11.9 85 1.3 SSE 20 30 11 16 1021.1 1021.1 0.0
22/09:00pm 14.0 11.3 11.7 86 1.2 S 17 30 9 16 1021.2 1021.2 0.0
22/08:30pm 14.1 11.7 11.4 84 1.4 SSE 15 20 8 11 1020.8 1020.8 0.0
22/08:00pm 14.7 11.4 11.5 81 1.7 S 20 26 11 14 1020.6 1020.6 0.0
22/07:30pm 15.7 11.7 11.7 77 2.2 S 24 30 13 16 1020.4 1020.4 0.0
22/07:00pm 17.4 13.8 11.7 69 3.1 S 22 28 12 15 1020.3 1020.2 0.0
22/06:30pm 18.6 14.3 11.9 65 3.7 S 26 33 14 18 1020.0 1019.9 0.0
22/06:00pm 20.1 16.1 11.8 59 4.6 S 24 35 13 19 1019.9 1019.8 0.0
22/05:30pm 21.8 17.7 11.5 52 5.7 S 24 32 13 17 1019.6 1019.5 0.0
22/05:00pm 22.7 18.0 10.5 46 6.7 S 26 35 14 19 1019.4 1019.3 0.0
22/04:30pm 23.7 19.3 10.4 43 7.3 S 24 35 13 19 1019.4 1019.3 0.0
22/04:00pm 24.2 20.0 11.2 44 7.3 SSE 24 35 13 19 1019.2 1019.1 0.0
22/03:30pm 24.5 19.8 10.8 42 7.6 S 26 35 14 19 1019.3 1019.2 0.0
22/03:00pm 25.8 21.9 10.8 39 8.4 S 22 33 12 18 1019.3 1019.2 0.0
22/02:30pm 24.9 20.2 10.7 40 7.9 S 26 32 14 17 1019.5 1019.4 0.0
22/02:00pm 25.1 20.6 11.3 42 7.8 SSW 26 39 14 21 1019.7 1019.6 0.0
22/01:30pm 23.5 19.5 11.9 48 6.6 SSW 24 35 13 19 1019.9 1019.8 0.0
22/01:00pm 23.2 19.7 12.2 50 6.3 SSW 22 33 12 18 1020.3 1020.2 0.0
22/12:30pm 22.6 19.2 12.5 53 5.7 SSW 22 32 12 17 1020.5 1020.5 0.0
22/12:00pm 22.1 19.1 12.6 55 5.4 SSW 20 30 11 16 1020.4 1020.4 0.0
22/11:30am 21.7 18.8 12.8 57 5.1 SSW 20 32 11 17 1020.5 1020.5 0.0
22/11:00am 20.9 17.6 12.8 60 4.6 SSW 22 33 12 18 1020.7 1020.7 0.0
22/10:30am 20.3 17.4 12.8 62 4.2 SSW 20 32 11 17 1020.9 1020.9 0.0
22/10:00am 19.1 16.7 12.8 67 3.6 SW 17 24 9 13 1020.6 1020.6 0.0
22/09:30am 18.2 15.2 12.6 70 3.1 SSW 20 30 11 16 1020.4 1020.4 0.0
22/09:00am 16.9 13.3 13.2 79 2.1 SSW 24 32 13 17 1020.1 1020.0 0.0
22/08:30am 15.2 11.6 12.9 86 1.3 SSW 24 30 13 16 1019.7 1019.6 0.0
22/08:00am 14.9 11.4 13.3 90 0.9 SSW 24 32 13 17 1019.6 1019.5 0.0
22/07:30am 14.4 10.9 13.3 93 0.6 SSW 24 32 13 17 1019.3 1019.2 0.0
22/07:00am 14.3 11.2 13.5 95 0.4 SSW 22 30 12 16 1018.9 1018.8 0.0
22/06:30am 14.4 11.8 13.8 96 0.3 SSW 20 26 11 14 1018.8 1018.7 0.0
22/06:00am 13.4 11.8 12.9 97 0.3 SSW 13 22 7 12 1018.5 1018.4 0.0
22/05:30am 13.4 11.4 12.8 96 0.3 SSW 15 20 8 11 1018.2 1018.1 0.0
22/05:00am 13.9 12.0 13.0 94 0.5 S 15 19 8 10 1018.1 1018.0 0.0
22/04:30am 14.1 12.5 12.8 92 0.7 SSW 13 20 7 11 1018.2 1018.1 0.0
22/04:00am 14.1 12.0 12.3 89 1.0 SSW 15 20 8 11 1018.0 1017.9 0.0
22/03:30am 14.1 11.9 12.0 87 1.1 SW 15 17 8 9 1017.6 1017.5 0.0
22/03:00am 14.1 12.0 11.3 83 1.5 S 13 15 7 8 1017.7 1017.6 0.0
22/02:30am 14.4 13.4 11.0 80 1.8 SW 7 9 4 5 1017.9 1017.8 0.0
22/02:00am 15.3 13.6 11.1 76 2.2 S 11 15 6 8 1017.9 1017.8 0.0
22/01:30am 16.1 13.3 11.5 74 2.5 S 17 20 9 11 1018.1 1018.0 0.0
22/01:00am 16.1 13.7 11.3 73 2.6 SSW 15 20 8 11 1018.1 1018.0 0.0
22/12:30am 16.8 13.9 11.1 69 3.1 SSW 17 20 9 11 1018.1 1018.0 0.0
22/12:00am 17.3 14.9 11.3 68 3.3 S 15 20 8 11 1018.1 1018.0 0.0
 
Date/Time
CDT
Temp
°C
App
Temp
°C
Dew
Point
Rel
Hum
%
Delta-T
°C
Wind Press
QNH
hPa
Press
MSL
hPa
Rain
since 9 am
mm
Dir
 
Spd
km/h
Gust
km/h
Spd
kts
Gust
kts
21/11:30pm 17.9 14.3 11.7 67 3.4 SSW 22 30 12 16 1017.9 1017.8 0.0
21/11:00pm 18.2 14.7 11.0 63 3.9 SSW 20 30 11 16 1017.8 1017.7 0.0
21/10:30pm 18.6 15.3 8.0 50 5.4 WSW 15 20 8 11 1017.5 1017.4 0.0
21/10:00pm 19.2 17.3 7.6 47 5.9 SSW 7 13 4 7 1017.2 1017.1 0.0
21/09:30pm 21.7 18.6 7.2 39 7.5 S 13 17 7 9 1016.7 1016.6 0.0
21/09:00pm 20.7 18.0 7.3 42 6.9 SSE 11 13 6 7 1016.8 1016.7 0.0
21/08:30pm 21.4 18.7 7.3 40 7.3 SSW 11 13 6 7 1016.2 1016.1 0.0
21/08:00pm 22.7 20.3 6.9 36 8.2 S 9 11 5 6 1015.5 1015.4 0.0
21/07:30pm 25.1 21.9 6.8 31 9.6 S 13 17 7 9 1015.1 1015.0 0.0
21/07:00pm 28.6 25.0 4.8 22 12.3 SW 13 19 7 10 1014.9 1014.8 0.0
21/06:30pm 30.6 25.8 4.4 19 13.6 WSW 19 28 10 15 1014.5 1014.4 0.0
21/06:00pm 31.2 24.2 4.1 18 14.0 W 30 39 16 21 1014.5 1014.4 0.0
21/05:30pm 34.8 29.0 0.0 11 17.2 N 20 26 11 14 1014.1 1014.0 0.0
21/05:00pm 33.9 28.8 0.5 12 16.5 NNE 17 26 9 14 1014.4 1014.3 0.0
21/04:30pm 33.2 29.3 1.1 13 16.0 NNE 11 20 6 11 1014.8 1014.7 0.0
21/04:00pm 32.9 26.3 -0.2 12 16.1 NW 24 35 13 19 1015.5 1015.4 0.0
21/03:30pm 32.8 28.6 1.8 14 15.6 NNW 13 19 7 10 1015.5 1015.4 0.0
21/03:00pm 33.7 29.1 1.5 13 16.2 N 15 24 8 13 1015.3 1015.2 0.0
21/02:30pm 33.6 28.1 0.3 12 16.4 N 19 26 10 14 1015.8 1015.7 0.0
21/02:00pm 33.4 28.8 1.3 13 16.1 N 15 20 8 11 1016.0 1015.9 0.0
21/01:30pm 32.4 26.9 0.5 13 15.6 NNW 19 26 10 14 1016.3 1016.2 0.0
21/01:00pm 32.6 26.0 -0.5 12 16.0 NW 24 35 13 19 1016.7 1016.6 0.0
21/12:30pm 32.7 27.4 -0.4 12 16.0 NW 17 28 9 15 1017.1 1017.0 0.0
21/12:00pm 31.7 25.9 -0.1 13 15.3 NNW 20 28 11 15 1017.6 1017.5 0.0
21/11:30am 31.4 26.7 0.7 14 15.0 NW 15 22 8 12 1017.6 1017.5 0.0
21/11:00am 30.7 26.0 1.1 15 14.5 NNW 15 22 8 12 1017.8 1017.7 0.0
21/10:30am 28.4 25.0 1.8 18 13.0 NW 9 13 5 7 1017.8 1017.7 0.0
21/10:00am 27.0 23.3 2.1 20 12.1 NNW 11 15 6 8 1017.7 1017.6 0.0
21/09:30am 27.5 22.9 1.8 19 12.5 NNW 15 24 8 13 1017.6 1017.5 0.0
21/09:00am 26.9 23.0 1.3 19 12.2 NNW 11 13 6 7 1017.4 1017.3 0.0
21/08:30am 25.5 19.7 0.2 19 11.7 NNE 20 28 11 15 1016.9 1016.8 0.0
21/08:00am 25.1 19.3 -0.1 19 11.6 NNE 20 26 11 14 1016.7 1016.6 0.0
21/07:30am 24.6 18.8 0.2 20 11.2 NNE 20 30 11 16 1016.5 1016.4 0.0
21/07:00am 23.7 18.2 0.7 22 10.6 NE 19 26 10 14 1016.2 1016.1 0.0
21/06:30am 21.5 16.9 1.7 27 9.2 NE 15 19 8 10 1015.9 1015.8 0.0
21/06:00am 21.6 17.2 2.8 29 8.9 NE 15 20 8 11 1015.6 1015.5 0.0
21/05:30am 21.3 17.4 3.5 31 8.5 NE 13 17 7 9 1015.3 1015.2 0.0
21/05:00am 21.8 17.5 3.5 30 8.8 NE 15 20 8 11 1015.2 1015.1 0.0
21/04:30am 21.8 17.3 4.4 32 8.5 NE 17 20 9 11 1015.1 1015.0 0.0
21/04:00am 22.2 17.8 4.7 32 8.6 NE 17 24 9 13 1015.3 1015.2 0.0
21/03:30am 22.8 17.6 5.7 33 8.6 ENE 22 33 12 18 1015.4 1015.3 0.0
21/03:00am 22.1 17.0 7.5 39 7.6 ENE 24 35 13 19 1015.4 1015.3 0.0
21/02:30am 22.9 17.1 7.8 38 7.9 ENE 28 37 15 20 1015.5 1015.4 0.0
21/02:00am 23.1 17.6 7.6 37 8.1 E 26 43 14 23 1015.8 1015.7 0.0
21/01:30am 22.7 17.4 8.4 40 7.6 E 26 35 14 19 1016.2 1016.1 0.0
21/01:00am 22.8 17.3 9.2 42 7.3 E 28 44 15 24 1016.4 1016.3 0.0
21/12:30am 22.7 17.7 9.5 43 7.1 E 26 37 14 20 1017.0 1016.9 0.0
21/12:00am 22.1 17.7 10.3 47 6.4 ENE 24 39 13 21 1017.4 1017.3 0.0
 
Date/Time
CDT
Temp
°C
App
Temp
°C
Dew
Point
Rel
Hum
%
Delta-T
°C
Wind Press
QNH
hPa
Press
MSL
hPa
Rain
since 9 am
mm
Dir
 
Spd
km/h
Gust
km/h
Spd
kts
Gust
kts
20/11:30pm 22.4 16.8 10.2 46 6.7 E 30 43 16 23 1017.5 1017.4 0.0
20/11:00pm 22.6 17.1 10.4 46 6.7 E 30 43 16 23 1017.7 1017.6 0.0
20/10:30pm 23.1 17.8 9.8 43 7.2 E 28 35 15 19 1018.0 1017.9 0.0
20/10:00pm 23.1 17.7 9.5 42 7.4 E 28 39 15 21 1018.1 1018.0 0.0
20/09:30pm 23.0 17.4 10.1 44 7.1 E 30 43 16 23 1018.1 1018.0 0.0
20/09:00pm 22.8 17.6 10.3 45 6.9 E 28 39 15 21 1018.1 1018.0 0.0
20/08:30pm 23.2 18.3 9.9 43 7.3 E 26 37 14 20 1017.9 1017.8 0.0
20/08:00pm 23.3 18.7 9.7 42 7.4 E 24 32 13 17 1017.6 1017.5 0.0
20/07:30pm 24.3 19.6 9.1 38 8.2 ESE 24 33 13 18 1017.3 1017.2 0.0

Other Formats:

Comma delimited format used in spreadsheet applications
http://www.bom.gov.au/fwo/IDS60801/IDS60801.95663.axf

JavaScript Object Notation format (JSON) in row-major order
http://www.bom.gov.au/fwo/IDS60801/IDS60801.95663.json